Estación Meteorológica Peña el Pijo (Robertgarden) [ 11/17/17 23:55:03 CET ]

Fecha Hora Presion(HPa) Temp (°C) Humedad % Rocio (°C) Viento ( m/s) Direccion Lluvia 1Hora(mm) Lluvia 24H(mm) LLuvia Total(mm)
2017-Aug-09 01:01:55 1011.500 14.9 33 -1.3         1437.96
2017-Aug-09 02:01:46 1011.400 13.6 38 -0.5         1437.96
2017-Aug-09 03:01:10 1010.700 12.6 40 -0.7         1437.96
2017-Aug-09 04:01:08 1010.400 12.4 42 -0.2         1437.96
2017-Aug-09 05:01:17 1009.900 12.1 44 0.1         1437.96
2017-Aug-09 06:01:13 1010.300 11.4 48 0.7         1437.96
2017-Aug-09 07:01:44 1010.000 10.6 53 1.4         1437.96
2017-Aug-09 08:01:56 1010.100 10.8 58 2.8         1437.96
2017-Aug-09 09:01:43 1010.000 18.1 52 8.0         1437.96
2017-Aug-09 10:01:58 1009.800 23.9 49 12.6         1437.96
2017-Aug-09 11:01:52 1009.800 28.4 38 12.7         1437.96
2017-Aug-09 12:01:59 1009.500 31.9 26 9.8         1437.96
2017-Aug-09 13:01:46 1009.100 32.9 19 6.0         1437.96
2017-Aug-09 14:01:48 1009.100 32.5 16 2.8         1437.96
2017-Aug-09 15:01:41 1008.800 33.4 15 2.5         1437.96
2017-Aug-09 16:01:37 1008.600 35.2 13 2.0 2.1 NNW     1437.96
2017-Aug-09 17:01:35 1008.400 34.2 14 2.2         1437.96
2017-Aug-09 18:01:58 1008.400 32.8 15 2.1         1437.96
2017-Aug-09 19:01:31 1008.600 31.2 16 1.8         1437.96
2017-Aug-09 20:01:32 1008.800 28.3 17 0.4         1437.96
2017-Aug-09 21:01:16 1009.100 25.6 20 1.0         1437.96
2017-Aug-09 22:01:41 1010.000 20.4 28 1.2         1437.96
2017-Aug-09 23:01:45 1010.800 17.3 35 1.6         1437.96

Temperatura Máxima:35°    Temperatura Mínima:10°
Presión Máxima:1011.500 Hpa    Presión Mínima:1008.400 Hpa


Volver